createdAt,value
2023-01-11T00:00:40.363Z,7.34
2023-01-11T00:03:06.988Z,7.65
2023-01-11T00:05:40.646Z,7.50
2023-01-11T00:08:08.179Z,7.36
2023-01-11T00:10:34.788Z,7.08
2023-01-11T00:13:01.775Z,7.41
2023-01-11T00:15:28.433Z,7.43
2023-01-11T00:17:54.906Z,7.47
2023-01-11T00:20:21.515Z,7.67
2023-01-11T00:22:47.985Z,7.41
2023-01-11T00:25:14.502Z,7.48
2023-01-11T00:27:41.046Z,7.68
2023-01-11T00:30:08.121Z,7.28
2023-01-11T00:32:34.546Z,7.30
2023-01-11T00:35:01.190Z,7.19
2023-01-11T00:37:27.631Z,7.56
2023-01-11T00:39:54.092Z,7.48
2023-01-11T00:42:39.178Z,7.47
2023-01-11T00:45:24.831Z,7.80
2023-01-11T00:47:57.364Z,7.72
2023-01-11T00:50:25.132Z,7.54
2023-01-11T00:52:51.610Z,7.55
2023-01-11T00:55:18.109Z,7.68
2023-01-11T00:57:44.549Z,7.80
2023-01-11T01:00:11.805Z,7.58
2023-01-11T01:02:38.341Z,7.85
2023-01-11T01:05:05.200Z,7.69
2023-01-11T01:07:31.814Z,7.66
2023-01-11T01:09:58.267Z,7.65
2023-01-11T01:12:43.451Z,7.89
2023-01-11T01:15:10.332Z,7.74
2023-01-11T01:17:36.787Z,7.70
2023-01-11T01:20:04.010Z,7.75
2023-01-11T01:22:30.514Z,8.00
2023-01-11T01:24:56.942Z,7.82
2023-01-11T01:27:23.501Z,7.82
2023-01-11T01:29:50.009Z,7.96
2023-01-11T01:32:16.498Z,7.88
2023-01-11T01:34:42.933Z,8.30
2023-01-11T01:37:11.387Z,8.29
2023-01-11T01:39:37.889Z,7.93
2023-01-11T01:42:06.006Z,8.09
2023-01-11T01:44:55.301Z,8.21
2023-01-11T01:47:28.766Z,8.19
2023-01-11T01:49:57.367Z,8.21
2023-01-11T01:52:29.105Z,8.22
2023-01-11T01:54:58.040Z,7.88
2023-01-11T01:57:27.744Z,7.92
2023-01-11T01:59:56.001Z,8.39
2023-01-11T02:02:24.480Z,8.19
2023-01-11T02:04:51.452Z,8.80
2023-01-11T02:07:20.211Z,8.42
2023-01-11T02:09:51.587Z,8.63
2023-01-11T02:12:18.774Z,8.58
2023-01-11T02:14:47.269Z,8.33
2023-01-11T02:17:13.999Z,8.39
2023-01-11T02:20:02.645Z,8.41
2023-01-11T02:22:44.290Z,8.44
2023-01-11T02:25:40.116Z,8.32
2023-01-11T02:28:11.205Z,8.39
2023-01-11T02:30:43.716Z,8.93
2023-01-11T02:33:22.417Z,8.80
2023-01-11T02:36:03.947Z,8.35
2023-01-11T02:38:58.381Z,9.10
2023-01-11T02:42:10.166Z,8.81
2023-01-11T02:45:01.472Z,8.92
2023-01-11T02:47:39.997Z,8.81
2023-01-11T02:50:11.657Z,8.43
2023-01-11T02:53:00.119Z,8.45
2023-01-11T02:55:30.470Z,8.71
2023-01-11T02:58:00.844Z,8.61
2023-01-11T03:00:27.463Z,8.83
2023-01-11T03:03:16.216Z,8.73
2023-01-11T03:05:55.025Z,8.79
2023-01-11T03:08:33.737Z,8.76
2023-01-11T03:11:03.198Z,9.06
2023-01-11T03:13:46.960Z,9.10
2023-01-11T03:16:19.059Z,8.93
2023-01-11T03:18:59.662Z,9.19
2023-01-11T03:21:50.841Z,8.80
2023-01-11T03:24:31.144Z,8.90
2023-01-11T03:27:18.012Z,8.84
2023-01-11T03:29:54.593Z,8.91
2023-01-11T03:32:24.344Z,9.13
2023-01-11T03:34:58.855Z,9.39
2023-01-11T03:37:42.513Z,8.99
2023-01-11T03:40:37.255Z,9.20
2023-01-11T03:43:12.463Z,9.26
2023-01-11T03:45:52.871Z,8.91
2023-01-11T03:48:29.401Z,8.92
2023-01-11T03:50:56.677Z,9.28
2023-01-11T03:53:24.112Z,9.04
2023-01-11T03:55:54.915Z,8.92
2023-01-11T03:58:21.683Z,9.21
2023-01-11T04:00:49.047Z,9.00
2023-01-11T04:03:15.736Z,9.10
2023-01-11T04:05:44.026Z,9.19
2023-01-11T04:08:11.554Z,8.98
2023-01-11T04:10:38.211Z,9.22
2023-01-11T04:13:04.735Z,9.37
2023-01-11T04:15:32.724Z,9.01
2023-01-11T04:18:04.890Z,9.27
2023-01-11T04:20:33.145Z,9.10
2023-01-11T04:22:59.593Z,9.42
2023-01-11T04:25:26.319Z,9.36
2023-01-11T04:27:52.805Z,9.44
2023-01-11T04:30:19.406Z,9.27
2023-01-11T04:32:45.878Z,9.20
2023-01-11T04:35:12.437Z,9.45
2023-01-11T04:37:38.913Z,9.43
2023-01-11T04:40:06.112Z,9.59
2023-01-11T04:42:32.623Z,9.64
2023-01-11T04:44:59.095Z,9.29
2023-01-11T04:47:25.874Z,9.21
2023-01-11T04:49:52.610Z,9.51
2023-01-11T04:52:20.231Z,9.90
2023-01-11T04:54:48.733Z,9.73
2023-01-11T04:57:17.128Z,9.61
2023-01-11T04:59:43.607Z,9.57
2023-01-11T05:02:10.052Z,9.96
2023-01-11T05:04:36.549Z,9.96
2023-01-11T05:07:03.093Z,9.67
2023-01-11T05:09:29.599Z,9.95
2023-01-11T05:11:56.071Z,9.66
2023-01-11T05:14:22.642Z,9.99
2023-01-11T05:16:49.219Z,9.74
2023-01-11T05:19:15.741Z,9.67
2023-01-11T05:21:42.519Z,10.24
2023-01-11T05:24:12.763Z,10.24
2023-01-11T05:26:40.963Z,10.16
2023-01-11T05:29:10.803Z,10.35
2023-01-11T05:31:40.122Z,10.15
2023-01-11T05:34:07.079Z,10.23
2023-01-11T05:36:34.196Z,10.05
2023-01-11T05:39:00.686Z,10.32
2023-01-11T05:41:27.976Z,10.02
2023-01-11T05:44:13.709Z,10.10
2023-01-11T05:46:41.897Z,10.21
2023-01-11T05:49:09.593Z,10.23
2023-01-11T05:51:38.057Z,10.05
2023-01-11T05:54:06.961Z,10.48
2023-01-11T05:56:33.474Z,10.13
2023-01-11T05:59:00.025Z,10.15
2023-01-11T06:01:26.927Z,10.16
2023-01-11T06:03:53.459Z,10.11
2023-01-11T06:06:20.902Z,10.33
2023-01-11T06:08:47.524Z,10.03
2023-01-11T06:11:14.931Z,10.36
2023-01-11T06:13:41.920Z,10.48
2023-01-11T06:16:16.910Z,10.61
2023-01-11T06:18:46.030Z,10.18
2023-01-11T06:21:13.174Z,10.50
2023-01-11T06:23:41.863Z,10.46
2023-01-11T06:26:10.805Z,10.59
2023-01-11T06:28:37.920Z,10.51
2023-01-11T06:31:05.467Z,10.62
2023-01-11T06:33:32.226Z,11.00
2023-01-11T06:35:59.172Z,10.62
2023-01-11T06:38:26.106Z,10.63
2023-01-11T06:40:54.023Z,10.85
2023-01-11T06:43:21.507Z,10.88
2023-01-11T06:45:48.078Z,10.84
2023-01-11T06:48:14.758Z,10.69
2023-01-11T06:50:41.234Z,11.03
2023-01-11T06:53:07.714Z,10.80
2023-01-11T06:55:34.164Z,10.87
2023-01-11T06:58:00.621Z,10.90
2023-01-11T07:00:27.275Z,11.21
2023-01-11T07:02:53.819Z,11.28
2023-01-11T07:05:20.344Z,11.44
2023-01-11T07:07:46.880Z,10.85
2023-01-11T07:10:15.392Z,11.11
2023-01-11T07:12:42.149Z,10.59
2023-01-11T07:15:10.240Z,11.05
2023-01-11T07:17:37.116Z,11.03
2023-01-11T07:20:04.988Z,11.48
2023-01-11T07:22:35.270Z,11.36
2023-01-11T07:25:02.196Z,11.24
2023-01-11T07:27:28.659Z,11.59
2023-01-11T07:29:55.143Z,11.50
2023-01-11T07:32:21.589Z,11.41
2023-01-11T07:34:48.092Z,11.32
2023-01-11T07:37:28.478Z,11.50
2023-01-11T07:39:55.640Z,11.68
2023-01-11T07:42:40.873Z,11.76
2023-01-11T07:45:08.005Z,11.87
2023-01-11T07:47:34.464Z,12.16
2023-01-11T07:50:00.930Z,12.11
2023-01-11T07:52:27.437Z,11.78
2023-01-11T07:54:53.887Z,11.81
2023-01-11T07:57:20.423Z,11.60
2023-01-11T07:59:46.882Z,11.76
2023-01-11T08:02:13.316Z,11.76
2023-01-11T08:04:39.757Z,11.67
2023-01-11T08:07:06.256Z,11.47
2023-01-11T08:09:32.759Z,11.83
2023-01-11T08:12:17.799Z,11.85
2023-01-11T08:14:44.263Z,11.74
2023-01-11T08:17:15.703Z,11.75
2023-01-11T08:19:42.980Z,11.93
2023-01-11T08:22:10.045Z,11.78
2023-01-11T08:24:36.570Z,11.79
2023-01-11T08:27:03.912Z,11.88
2023-01-11T08:29:30.678Z,11.63
2023-01-11T08:31:57.257Z,11.75
2023-01-11T08:34:23.784Z,11.97
2023-01-11T08:36:50.238Z,12.16
2023-01-11T08:39:16.724Z,11.66
2023-01-11T08:41:43.212Z,11.85
2023-01-11T08:44:11.837Z,11.90
2023-01-11T08:46:38.485Z,12.02
2023-01-11T08:49:11.165Z,11.80
2023-01-11T08:51:41.562Z,12.13
2023-01-11T08:54:12.879Z,11.79
2023-01-11T08:56:39.500Z,11.89
2023-01-11T08:59:06.839Z,12.00
2023-01-11T09:01:33.680Z,12.13
2023-01-11T09:04:00.268Z,12.18
2023-01-11T09:06:26.835Z,12.25
2023-01-11T09:08:53.488Z,11.98
2023-01-11T09:11:38.478Z,12.63
2023-01-11T09:14:04.953Z,12.41
2023-01-11T09:16:31.476Z,11.99
2023-01-11T09:18:58.013Z,11.79
2023-01-11T09:21:24.440Z,12.32
2023-01-11T09:23:50.917Z,11.97
2023-01-11T09:26:17.455Z,12.25
2023-01-11T09:28:43.993Z,12.24
2023-01-11T09:31:10.588Z,12.52
2023-01-11T09:33:38.494Z,12.28
2023-01-11T09:36:05.931Z,12.23
2023-01-11T09:38:34.002Z,12.52
2023-01-11T09:41:17.805Z,12.21
2023-01-11T09:43:51.464Z,11.87
2023-01-11T09:46:18.396Z,12.18
2023-01-11T09:48:48.471Z,12.39
2023-01-11T09:51:16.561Z,12.44
2023-01-11T09:53:49.463Z,12.04
2023-01-11T09:56:24.651Z,12.86
2023-01-11T09:58:57.360Z,12.24
2023-01-11T10:01:33.744Z,12.16
2023-01-11T10:04:06.281Z,12.43
2023-01-11T10:06:56.148Z,12.89
2023-01-11T10:18:31.356Z,12.50
2023-01-11T10:18:58.281Z,12.23
2023-01-11T10:21:29.822Z,12.03
2023-01-11T10:24:02.765Z,11.96
2023-01-11T10:26:37.290Z,11.67
2023-01-11T10:29:49.815Z,12.18
2023-01-11T10:32:40.067Z,11.83
2023-01-11T10:35:25.988Z,12.28
2023-01-11T10:38:28.086Z,12.00
2023-01-11T10:41:10.447Z,12.20
2023-01-11T10:43:43.176Z,12.15
2023-01-11T10:46:21.556Z,11.99
2023-01-11T10:48:50.970Z,12.40
2023-01-11T10:51:24.765Z,12.19
2023-01-11T10:54:16.173Z,11.81
2023-01-11T10:57:04.790Z,12.00
2023-01-11T10:59:43.997Z,11.64
2023-01-11T11:02:52.636Z,12.12
2023-01-11T11:05:35.713Z,11.80
2023-01-11T11:08:14.710Z,12.53
2023-01-11T11:10:59.031Z,12.24
2023-01-11T11:13:50.340Z,12.35
2023-01-11T11:16:22.985Z,12.30
2023-01-11T11:18:54.430Z,12.15
2023-01-11T11:21:30.877Z,11.72
2023-01-11T11:24:01.097Z,11.97
2023-01-11T11:26:38.420Z,12.18
2023-01-11T11:29:10.665Z,12.21
2023-01-11T11:31:42.900Z,11.90
2023-01-11T11:34:16.268Z,12.04
2023-01-11T11:36:44.538Z,12.13
2023-01-11T11:39:30.515Z,12.34
2023-01-11T11:42:05.383Z,12.03
2023-01-11T11:44:32.003Z,12.45
2023-01-11T11:47:06.021Z,12.45
2023-01-11T11:49:34.414Z,12.10
2023-01-11T11:52:02.735Z,12.27
2023-01-11T11:54:35.393Z,11.51
2023-01-11T11:57:29.674Z,11.79
2023-01-11T12:00:09.106Z,11.76
2023-01-11T12:02:37.233Z,12.29
2023-01-11T12:05:09.604Z,11.85
2023-01-11T12:07:54.656Z,12.11
2023-01-11T12:10:26.806Z,11.60
2023-01-11T12:12:53.276Z,11.93
2023-01-11T12:15:28.960Z,11.92
2023-01-11T12:17:57.413Z,11.66
2023-01-11T12:20:23.867Z,11.35
2023-01-11T12:22:51.415Z,11.84
2023-01-11T12:25:25.292Z,11.65
2023-01-11T12:28:28.252Z,11.36
2023-01-11T12:31:13.713Z,11.56
2023-01-11T12:34:13.988Z,11.36
2023-01-11T12:36:53.672Z,10.88
2023-01-11T12:39:38.915Z,11.51
2023-01-11T12:42:24.239Z,10.88
2023-01-11T12:45:20.469Z,11.05
2023-01-11T12:48:07.781Z,11.28
2023-01-11T12:50:59.632Z,11.54
2023-01-11T12:54:00.056Z,11.78
2023-01-11T12:56:44.273Z,11.82
2023-01-11T12:59:44.551Z,11.44
2023-01-11T13:02:21.772Z,11.56
2023-01-11T13:04:52.954Z,11.59
2023-01-11T13:07:34.643Z,11.45
2023-01-11T13:10:16.967Z,11.33
2023-01-11T13:12:48.271Z,10.82
2023-01-11T13:15:26.798Z,11.16
2023-01-11T13:18:20.649Z,10.93
2023-01-11T13:21:02.855Z,11.18
2023-01-11T13:23:41.946Z,11.27
2023-01-11T13:26:23.474Z,11.57
2023-01-11T13:28:55.241Z,11.42
2023-01-11T13:31:22.115Z,11.43
2023-01-11T13:33:54.083Z,11.31
2023-01-11T13:36:26.343Z,11.46
2023-01-11T13:41:29.008Z,11.21
2023-01-11T13:44:15.339Z,11.46
2023-01-11T13:47:03.001Z,11.14
2023-01-11T13:49:42.746Z,10.67
2023-01-11T13:52:14.978Z,11.05
2023-01-11T13:54:44.380Z,11.10
2023-01-11T13:57:15.316Z,11.19
2023-01-11T13:59:45.959Z,10.91
2023-01-11T14:02:23.563Z,10.72
2023-01-11T14:05:21.278Z,10.76
2023-01-11T14:08:00.889Z,10.98
2023-01-11T14:10:40.491Z,11.17
2023-01-11T14:13:48.390Z,10.77
2023-01-11T14:16:28.989Z,10.96
2023-01-11T14:19:17.230Z,11.02
2023-01-11T14:21:43.673Z,11.13
2023-01-11T14:24:10.363Z,11.05
2023-01-11T14:26:50.806Z,10.64
2023-01-11T14:29:35.732Z,11.08
2023-01-11T14:32:31.291Z,10.52
2023-01-11T14:35:41.019Z,10.29
2023-01-11T14:38:27.760Z,10.78
2023-01-11T14:41:29.451Z,11.17
2023-01-11T14:44:14.162Z,10.77
2023-01-11T14:46:51.505Z,10.62
2023-01-11T14:49:44.967Z,10.75
2023-01-11T14:52:12.252Z,10.75
2023-01-11T14:54:44.149Z,10.69
2023-01-11T14:57:40.822Z,10.99
2023-01-11T15:00:19.399Z,10.65
2023-01-11T15:02:47.572Z,10.68
2023-01-11T15:05:29.387Z,10.52
2023-01-11T15:08:13.041Z,10.81
2023-01-11T15:11:23.963Z,11.08
2023-01-11T15:13:57.487Z,10.96
2023-01-11T15:16:45.563Z,10.93
2023-01-11T15:19:23.398Z,10.96
2023-01-11T15:21:53.260Z,10.99
2023-01-11T15:24:30.208Z,10.95
2023-01-11T15:26:59.067Z,10.67
2023-01-11T15:29:56.014Z,10.59
2023-01-11T15:32:31.180Z,10.85
2023-01-11T15:35:22.495Z,10.42
2023-01-11T15:37:58.200Z,10.44
2023-01-11T15:40:32.008Z,10.61
2023-01-11T15:43:25.884Z,10.10
2023-01-11T15:46:14.118Z,10.86
2023-01-11T15:49:18.737Z,10.82
2023-01-11T15:52:29.433Z,10.83
2023-01-11T15:55:34.614Z,11.11
2023-01-11T15:58:23.935Z,11.24
2023-01-11T16:01:19.414Z,10.73
2023-01-11T16:04:15.434Z,11.08
2023-01-11T16:06:50.026Z,10.78
2023-01-11T16:09:53.969Z,10.48
2023-01-11T16:12:48.238Z,10.26
2023-01-11T16:16:03.722Z,10.76
2023-01-11T16:18:35.520Z,10.14
2023-01-11T16:21:05.027Z,9.99
2023-01-11T16:23:32.489Z,10.13
2023-01-11T16:25:59.330Z,10.16
2023-01-11T16:28:26.519Z,10.15
2023-01-11T16:31:04.919Z,9.96
2023-01-11T16:33:33.560Z,9.87
2023-01-11T16:36:23.752Z,10.14
2023-01-11T16:39:12.058Z,10.11
2023-01-11T16:41:46.380Z,10.18
2023-01-11T16:44:27.199Z,10.36
2023-01-11T16:47:11.223Z,9.90
2023-01-11T16:49:38.768Z,10.08
2023-01-11T16:52:27.088Z,9.87
2023-01-11T16:54:55.119Z,10.10
2023-01-11T16:57:31.278Z,9.66
2023-01-11T17:00:01.732Z,10.06
2023-01-11T17:02:40.105Z,9.98
2023-01-11T17:05:21.634Z,9.62
2023-01-11T17:07:48.084Z,9.68
2023-01-11T17:10:27.863Z,9.74
2023-01-11T17:13:45.649Z,9.43
2023-01-11T17:16:14.851Z,9.69
2023-01-11T17:18:42.817Z,10.07
2023-01-11T17:21:20.054Z,9.85
2023-01-11T17:23:48.036Z,9.62
2023-01-11T17:26:17.374Z,9.76
2023-01-11T17:28:45.418Z,9.47
2023-01-11T17:31:20.531Z,9.53
2023-01-11T17:33:48.786Z,9.57
2023-01-11T17:36:16.422Z,9.54
2023-01-11T17:38:44.348Z,9.37
2023-01-11T17:41:31.006Z,9.68
2023-01-11T17:44:16.072Z,9.13
2023-01-11T17:46:42.652Z,9.27
2023-01-11T17:49:21.113Z,9.06
2023-01-11T17:51:47.614Z,9.13
2023-01-11T17:54:21.583Z,9.11
2023-01-11T17:56:56.844Z,9.27
2023-01-11T17:59:25.185Z,9.32
2023-01-11T18:02:03.924Z,9.33
2023-01-11T18:04:31.474Z,8.81
2023-01-11T18:07:07.695Z,9.07
2023-01-11T18:09:37.630Z,9.03
2023-01-11T18:12:21.532Z,9.21
2023-01-11T18:15:00.357Z,9.09
2023-01-11T18:17:37.347Z,9.18
2023-01-11T18:20:29.701Z,9.32
2023-01-11T18:22:56.252Z,8.81
2023-01-11T18:25:31.032Z,8.97
2023-01-11T18:28:17.723Z,9.33
2023-01-11T18:30:54.865Z,8.96
2023-01-11T18:33:23.914Z,8.96
2023-01-11T18:35:52.653Z,9.37
2023-01-11T18:38:24.328Z,9.39
2023-01-11T18:40:52.122Z,9.50
2023-01-11T18:43:25.217Z,9.03
2023-01-11T18:45:52.019Z,8.96
2023-01-11T18:48:18.507Z,9.18
2023-01-11T18:50:45.360Z,9.13
2023-01-11T18:53:12.735Z,9.45
2023-01-11T18:55:39.601Z,9.52
2023-01-11T18:58:06.331Z,8.89
2023-01-11T19:00:32.905Z,9.32
2023-01-11T19:02:59.583Z,9.12
2023-01-11T19:05:29.121Z,9.24
2023-01-11T19:07:55.606Z,9.27
2023-01-11T19:10:22.935Z,8.99
2023-01-11T19:12:50.747Z,9.26
2023-01-11T19:15:17.376Z,9.09
2023-01-11T19:17:43.902Z,9.07
2023-01-11T19:20:11.134Z,9.40
2023-01-11T19:22:38.205Z,9.24
2023-01-11T19:25:06.770Z,9.03
2023-01-11T19:27:33.264Z,9.03
2023-01-11T19:29:59.779Z,8.82
2023-01-11T19:32:26.252Z,8.92
2023-01-11T19:34:53.516Z,8.81
2023-01-11T19:37:20.781Z,9.02
2023-01-11T19:39:47.370Z,8.83
2023-01-11T19:42:13.855Z,8.69
2023-01-11T19:44:40.372Z,9.21
2023-01-11T19:47:12.103Z,8.99
2023-01-11T19:49:40.274Z,9.19
2023-01-11T19:52:12.569Z,8.89
2023-01-11T19:54:43.320Z,8.86
2023-01-11T19:57:18.935Z,9.16
2023-01-11T19:59:45.528Z,8.79
2023-01-11T20:02:13.821Z,9.10
2023-01-11T20:04:40.658Z,9.28
2023-01-11T20:07:08.358Z,8.74
2023-01-11T20:09:37.789Z,8.69
2023-01-11T20:12:06.117Z,8.98
2023-01-11T20:14:33.868Z,9.14
2023-01-11T20:17:00.408Z,9.03
2023-01-11T20:19:27.003Z,9.31
2023-01-11T20:21:53.546Z,9.53
2023-01-11T20:24:20.047Z,9.33
2023-01-11T20:26:48.719Z,8.90
2023-01-11T20:29:15.339Z,9.48
2023-01-11T20:31:41.779Z,9.21
2023-01-11T20:34:11.077Z,9.09
2023-01-11T20:36:37.691Z,9.34
2023-01-11T20:39:05.197Z,9.20
2023-01-11T20:41:46.861Z,9.22
2023-01-11T20:44:16.082Z,8.79
2023-01-11T20:46:43.205Z,8.72
2023-01-11T20:49:09.779Z,8.96
2023-01-11T20:51:36.767Z,9.17
2023-01-11T20:54:04.773Z,8.83
2023-01-11T20:56:33.050Z,8.82
2023-01-11T20:59:01.220Z,8.91
2023-01-11T21:01:28.537Z,8.90
2023-01-11T21:03:58.333Z,9.01
2023-01-11T21:06:24.962Z,9.06
2023-01-11T21:08:56.261Z,8.94
2023-01-11T21:11:23.177Z,8.91
2023-01-11T21:13:54.243Z,8.78
2023-01-11T21:16:22.930Z,8.98
2023-01-11T21:18:57.830Z,8.73
2023-01-11T21:21:25.518Z,8.99
2023-01-11T21:24:00.119Z,8.84
2023-01-11T21:26:27.897Z,9.06
2023-01-11T21:28:58.709Z,8.83
2023-01-11T21:31:27.059Z,8.93
2023-01-11T21:33:53.594Z,9.35
2023-01-11T21:36:22.383Z,9.31
2023-01-11T21:38:49.102Z,9.21
2023-01-11T21:41:40.213Z,8.86
2023-01-11T21:44:08.003Z,8.98
2023-01-11T21:46:34.983Z,9.19
2023-01-11T21:49:01.673Z,9.00
2023-01-11T21:51:29.844Z,9.13
2023-01-11T21:53:57.277Z,9.03
2023-01-11T21:56:24.028Z,9.61
2023-01-11T21:58:50.696Z,9.01
2023-01-11T22:01:20.250Z,9.39
2023-01-11T22:03:46.918Z,9.49
2023-01-11T22:06:15.681Z,9.25
2023-01-11T22:08:45.261Z,9.56
2023-01-11T22:11:13.835Z,8.97
2023-01-11T22:13:40.726Z,9.35
2023-01-11T22:16:12.517Z,9.22
2023-01-11T22:18:41.118Z,9.20
2023-01-11T22:21:10.661Z,8.82
2023-01-11T22:23:37.568Z,9.29
2023-01-11T22:26:08.505Z,8.98
2023-01-11T22:28:57.843Z,9.05
2023-01-11T22:31:26.456Z,8.96
2023-01-11T22:33:53.465Z,8.94
2023-01-11T22:36:20.555Z,8.88
2023-01-11T22:38:47.400Z,9.30
2023-01-11T22:41:14.988Z,9.12
2023-01-11T22:43:45.243Z,9.18
2023-01-11T22:46:17.527Z,9.04
2023-01-11T22:48:44.112Z,9.21
2023-01-11T22:51:11.341Z,8.64
2023-01-11T22:53:42.688Z,8.84
2023-01-11T22:56:10.060Z,8.95
2023-01-11T22:58:36.619Z,8.98
2023-01-11T23:01:13.645Z,9.13
2023-01-11T23:03:41.346Z,8.66
2023-01-11T23:06:08.946Z,9.06
2023-01-11T23:08:41.452Z,8.97
2023-01-11T23:11:08.743Z,9.04
2023-01-11T23:13:54.946Z,9.12
2023-01-11T23:16:24.457Z,9.23
2023-01-11T23:18:50.949Z,8.78
2023-01-11T23:21:17.429Z,8.97
2023-01-11T23:23:44.020Z,8.87
2023-01-11T23:26:12.201Z,9.03
2023-01-11T23:28:39.322Z,9.02
2023-01-11T23:31:19.449Z,8.67
2023-01-11T23:33:47.531Z,8.83
2023-01-11T23:36:14.555Z,8.65
2023-01-11T23:38:41.391Z,9.09
2023-01-11T23:41:28.417Z,8.98
2023-01-11T23:43:54.992Z,8.61
2023-01-11T23:46:40.539Z,8.82
2023-01-11T23:49:08.260Z,8.83
2023-01-11T23:51:35.624Z,8.74
2023-01-11T23:54:05.574Z,9.08
2023-01-11T23:56:33.073Z,9.18
2023-01-11T23:59:00.056Z,8.85
